createdAt,value
2023-12-02T00:00:01.923Z,4.28
2023-12-02T00:15:01.609Z,4.45
2023-12-02T00:30:02.379Z,4
2023-12-02T00:45:02.101Z,3.98
2023-12-02T01:00:01.837Z,3.45
2023-12-02T01:15:01.576Z,3.24
2023-12-02T01:30:02.293Z,3.13
2023-12-02T01:45:02.010Z,3.41
2023-12-02T02:00:01.657Z,3.3
2023-12-02T02:15:01.417Z,3.68
2023-12-02T02:30:02.185Z,3.92
2023-12-02T02:45:01.881Z,4.21
2023-12-02T03:00:01.549Z,3.86
2023-12-02T03:15:02.328Z,3.38
2023-12-02T03:30:02.081Z,2.96
2023-12-02T03:45:02.027Z,3.1
2023-12-02T04:00:01.929Z,3.72
2023-12-02T04:15:02.713Z,4.09
2023-12-02T04:30:01.783Z,4.07
2023-12-02T04:45:02.517Z,4.21
2023-12-02T05:00:02.248Z,4.12
2023-12-02T05:15:01.932Z,4.18
2023-12-02T05:30:01.668Z,4.25
2023-12-02T05:45:02.412Z,4.17
2023-12-02T06:00:02.121Z,4.08
2023-12-02T06:15:01.832Z,4.19
2023-12-02T06:30:01.531Z,4.07
2023-12-02T06:45:02.254Z,4.78
2023-12-02T07:00:02.110Z,4.58
2023-12-02T07:15:01.907Z,4.28
2023-12-02T07:45:02.345Z,4.18
2023-12-02T08:00:01.993Z,4.07
2023-12-02T08:15:01.623Z,4.32
2023-12-02T08:30:02.257Z,4.45
2023-12-02T08:45:01.937Z,4.68
2023-12-02T09:00:01.582Z,5.15
2023-12-02T09:15:02.230Z,5.51
2023-12-02T09:30:01.933Z,6.21
2023-12-02T09:45:03.938Z,6.25
2023-12-02T10:00:01.918Z,6.45
2023-12-02T10:15:01.595Z,6.55
2023-12-02T10:30:01.237Z,6.34
2023-12-02T10:45:01.844Z,6.79
2023-12-02T11:00:01.655Z,6.27
2023-12-02T11:15:01.419Z,6.16
2023-12-02T11:30:02.156Z,7.01
2023-12-02T11:45:02.802Z,7.12
2023-12-02T12:00:01.679Z,6.68
2023-12-02T12:15:02.528Z,6.05
2023-12-02T12:30:02.324Z,5.86
2023-12-02T12:45:02.055Z,5.83
2023-12-02T13:00:01.804Z,5.68
2023-12-02T13:15:01.504Z,5.82
2023-12-02T13:30:02.212Z,5.69
2023-12-02T13:45:01.914Z,5.98
2023-12-02T14:00:01.576Z,6.28
2023-12-02T14:15:02.260Z,5.8
2023-12-02T14:30:02.002Z,5.72
2023-12-02T14:45:01.723Z,5.66
2023-12-02T15:00:01.704Z,5.66
2023-12-02T15:15:01.665Z,5.6
2023-12-02T15:30:01.385Z,5.75
2023-12-02T15:45:02.289Z,5.98
2023-12-02T16:00:02.072Z,6.1
2023-12-02T16:15:01.794Z,5.98
2023-12-02T16:30:01.609Z,5.71
2023-12-02T16:45:02.373Z,5.68
2023-12-02T17:00:02.127Z,6.03
2023-12-02T17:15:01.851Z,6.08
2023-12-02T17:30:01.612Z,6.03
2023-12-02T17:45:02.418Z,6.33
2023-12-02T18:00:02.191Z,6.24
2023-12-02T18:15:01.994Z,6.11
2023-12-02T18:30:01.749Z,5.97
2023-12-02T18:45:01.424Z,6.1
2023-12-02T19:00:02.072Z,6
2023-12-02T19:15:01.749Z,5.86
2023-12-02T19:30:01.404Z,5.64
2023-12-02T19:45:02.050Z,5.41
2023-12-02T20:00:01.691Z,5.56
2023-12-02T20:15:01.329Z,5.34
2023-12-02T20:30:02.004Z,5.15
2023-12-02T20:45:01.648Z,5.12
2023-12-02T21:00:02.288Z,5.15
2023-12-02T21:15:01.965Z,5.64
2023-12-02T21:30:01.592Z,5.64
2023-12-02T21:45:01.240Z,5.53
2023-12-02T22:00:01.876Z,5.68
2023-12-02T22:15:01.519Z,5.56
2023-12-02T22:30:01.200Z,5.76
2023-12-02T22:45:01.823Z,6
2023-12-02T23:00:01.406Z,6.08
2023-12-02T23:15:02.119Z,6.02
2023-12-02T23:30:01.737Z,6.25
2023-12-02T23:45:01.519Z,6.21
